Time;durP1;ratioP1;P1;durP2;ratioP2;P2;SDS_P1;SDS_P2;PMS_P1;PMS_P2;Temp;Humidity;BMP_temperature;BMP_pressure;BME280_temperature;BME280_humidity;BME280_pressure;Samples;Min_cycle;Max_cycle;Signal;HPM_P1;HPM_P2
2022/02/01 00:36:26;;;;;;;;;;;;;;;;;;;;;
2022/02/01 00:39:04;;;;;;;;;10.00;6.75;;;;;5.24;53.07;102474.97;6313689;22;71261;-87
2022/02/01 00:41:42;;;;;;;;;;;;;;;;;;;;;
2022/02/01 00:44:20;;;;;;;;;;;;;;;;;;;;;
2022/02/01 00:47:13;;;;;;;;;;;;;;;;;;;;;
2022/02/01 00:49:42;;;;;;;;;7.25;7.25;;;;;5.09;52.96;102463.00;6319923;22;72015;-81
2022/02/01 00:52:13;;;;;;;;;10.75;7.75;;;;;5.09;53.12;102467.31;6310549;22;45314;-82
2022/02/01 00:54:40;;;;;;;;;13.25;10.00;;;;;5.08;53.32;102474.25;6309593;22;45506;-84
2022/02/01 00:57:09;;;;;;;;;6.25;6.25;;;;;5.31;52.95;102518.81;6310001;22;46435;-83
2022/02/01 00:59:34;;;;;;;;;6.25;6.00;;;;;5.18;53.14;102482.50;6283153;22;45250;-82
2022/02/01 01:02:00;;;;;;;;;11.00;9.00;;;;;5.36;52.98;102522.53;6308449;22;45276;-83
2022/02/01 01:04:25;;;;;;;;;10.00;10.00;;;;;5.21;53.21;102501.84;6308068;22;45456;-82
2022/02/01 01:06:53;;;;;;;;;8.00;6.00;;;;;5.31;53.25;102522.31;6281925;22;46425;-82
2022/02/01 01:09:19;;;;;;;;;8.75;8.75;;;;;5.37;53.23;102539.97;6282854;22;45759;-82
2022/02/01 01:11:45;;;;;;;;;7.00;7.00;;;;;5.22;53.19;102511.44;6284609;22;45371;-82
2022/02/01 01:17:28;;;;;;;;;6.50;6.50;;;;;5.24;53.27;102517.66;6312554;22;45187;-82
2022/02/01 01:44:26;;;;;;;;;9.25;7.75;;;;;5.27;54.02;102486.44;6313368;22;45404;-82
2022/02/01 01:55:17;;;;;;;;;9.75;9.00;;;;;5.36;54.70;102485.97;6321301;22;45437;-81
2022/02/01 01:57:43;;;;;;;;;10.75;7.00;;;;;5.42;54.33;102501.03;6292677;22;45376;-82
2022/02/01 02:00:22;;;;;;;;;11.00;9.00;;;;;5.35;54.30;102473.75;6291211;22;46260;-82
2022/02/01 02:02:47;;;;;;;;;7.00;7.00;;;;;5.39;54.74;102470.44;6289473;22;45755;-81
2022/02/01 02:05:13;;;;;;;;;8.25;6.25;;;;;5.39;54.59;102466.94;6289565;22;45301;-81
2022/02/01 02:07:38;;;;;;;;;7.00;5.00;;;;;5.29;54.92;102448.25;6288026;22;45433;-82
2022/02/01 02:10:05;;;;;;;;;9.75;7.75;;;;;5.49;55.00;102493.53;6283233;22;46892;-81
2022/02/01 02:12:50;;;;;;;;;14.00;9.00;;;;;5.49;54.90;102483.09;6285525;22;45323;-81
2022/02/01 02:15:37;;;;;;;;;8.00;8.00;;;;;5.61;55.29;102492.28;6313779;22;45403;-82
2022/02/01 02:18:05;;;;;;;;;5.75;5.75;;;;;5.53;55.06;102469.34;6287492;22;45276;-81
2022/02/01 02:20:51;;;;;;;;;10.50;8.25;;;;;5.59;55.09;102488.75;6315199;22;46145;-81
2022/02/01 02:23:16;;;;;;;;;8.50;6.75;;;;;5.52;55.28;102482.34;6284149;22;45156;-80
2022/02/01 02:25:43;;;;;;;;;8.25;6.75;;;;;5.71;55.36;102500.63;6309668;22;45148;-82
2022/02/01 02:28:12;;;;;;;;;10.75;8.25;;;;;5.55;55.56;102468.53;6282757;22;45376;-82
2022/02/01 02:30:38;;;;;;;;;8.25;6.00;;;;;5.76;55.50;102498.22;6282143;22;47818;-82
2022/02/01 02:33:06;;;;;;;;;7.00;7.00;;;;;5.81;55.37;102496.69;6281813;22;45828;-82
2022/02/01 02:35:47;;;;;;;;;8.50;5.50;;;;;5.89;55.48;102499.66;6282194;22;45206;-82
2022/02/01 02:38:18;;;;;;;;;8.25;6.75;;;;;5.71;55.76;102461.41;6282020;22;45376;-82
2022/02/01 02:45:59;;;;;;;;;8.25;8.25;;;;;5.83;55.82;102458.47;6310048;22;45173;-82
2022/02/01 02:48:25;;;;;;;;;8.75;6.00;;;;;5.92;55.94;102457.97;6282197;22;45405;-83
2022/02/01 02:50:50;;;;;;;;;11.25;7.00;;;;;6.04;55.88;102466.38;6282055;22;47083;-82
2022/02/01 02:53:16;;;;;;;;;10.50;7.00;;;;;5.95;55.77;102439.81;6310403;22;45191;-82
2022/02/01 02:55:41;;;;;;;;;6.75;6.25;;;;;5.91;56.07;102423.09;6282292;22;45172;-82
2022/02/01 02:58:07;;;;;;;;;7.00;6.75;;;;;6.03;56.27;102441.03;6282332;22;45430;-82
2022/02/01 03:00:32;;;;;;;;;8.75;6.50;;;;;6.09;56.50;102454.34;6310306;22;45881;-83
2022/02/01 03:02:58;;;;;;;;;8.00;7.00;;;;;5.87;56.78;102417.66;6309970;22;45399;-82
2022/02/01 03:05:26;;;;;;;;;5.50;5.50;;;;;5.93;57.23;102436.22;6282306;22;45282;-82
2022/02/01 03:07:51;;;;;;;;;8.00;6.50;;;;;5.84;56.97;102423.66;6282244;22;45285;-83
2022/02/01 03:10:17;;;;;;;;;7.00;4.50;;;;;5.98;57.22;102439.94;6307969;22;47052;-83
2022/02/01 03:13:31;;;;;;;;;7.25;5.50;;;;;5.87;57.41;102421.16;6282352;22;45222;-83
2022/02/01 03:20:46;;;;;;;;;5.75;4.00;;;;;5.83;58.18;102395.75;6309680;22;45316;-83
2022/02/01 03:23:12;;;;;;;;;5.00;5.00;;;;;5.90;57.99;102407.34;6281447;22;45355;-83
2022/02/01 03:25:37;;;;;;;;;6.00;5.00;;;;;5.94;58.13;102411.91;6283051;22;45168;-83
2022/02/01 03:28:03;;;;;;;;;6.00;4.00;;;;;5.99;58.58;102422.53;6311409;22;45270;-82
2022/02/01 03:30:38;;;;;;;;;;;;;;;;;;;;;
2022/02/01 03:33:04;;;;;;;;;3.50;2.50;;;;;5.91;58.60;102410.03;6310169;22;72253;-82
2022/02/01 03:35:30;;;;;;;;;5.75;3.75;;;;;5.95;58.89;102411.06;6283525;22;45193;-83
2022/02/01 03:37:57;;;;;;;;;6.25;6.00;;;;;5.98;58.91;102416.41;6283472;22;45538;-83
2022/02/01 03:40:22;;;;;;;;;8.75;5.75;;;;;6.13;58.65;102442.34;6283718;22;47837;-83
2022/02/01 03:42:48;;;;;;;;;3.75;2.00;;;;;6.04;59.00;102426.25;6311739;22;45425;-84
2022/02/01 03:45:13;;;;;;;;;4.50;4.50;;;;;6.06;59.29;102420.25;6284366;22;45307;-83
2022/02/01 03:47:39;;;;;;;;;5.25;5.25;;;;;6.00;59.58;102399.09;6283555;22;45562;-83
2022/02/01 03:50:11;;;;;;;;;5.75;3.25;;;;;6.17;59.85;102421.63;6284499;22;46871;-82
2022/02/01 03:52:39;;;;;;;;;9.00;6.50;;;;;6.11;59.72;102396.91;6283776;22;45277;-83
2022/02/01 03:55:05;;;;;;;;;7.00;6.00;;;;;6.21;59.88;102414.78;6284361;22;45374;-83
2022/02/01 03:57:32;;;;;;;;;3.00;3.00;;;;;5.97;60.21;102381.56;6287364;22;45598;-83
2022/02/01 03:59:58;;;;;;;;;5.00;5.00;;;;;6.21;60.19;102417.38;6315551;22;45238;-82
2022/02/01 04:02:26;;;;;;;;;6.75;3.75;;;;;6.21;60.24;102406.03;6315093;22;45301;-82
2022/02/01 04:04:54;;;;;;;;;5.25;3.50;;;;;5.96;60.02;102363.19;6312892;22;45232;-83
2022/02/01 04:07:23;;;;;;;;;5.75;3.75;;;;;6.05;60.66;102384.50;6311448;22;45430;-83
2022/02/01 04:09:52;;;;;;;;;6.25;5.25;;;;;6.13;60.64;102401.38;6313059;22;46297;-82
2022/02/01 04:12:18;;;;;;;;;6.75;5.00;;;;;6.15;61.06;102384.03;6285034;22;45686;-83
2022/02/01 04:14:45;;;;;;;;;10.75;7.00;;;;;6.12;61.07;102380.38;6283561;22;45339;-83
2022/02/01 04:17:11;;;;;;;;;6.25;6.25;;;;;6.10;61.37;102379.47;6311202;22;45333;-83
2022/02/01 04:19:40;;;;;;;;;4.00;4.00;;;;;6.26;61.21;102401.91;6282294;22;47117;-83
2022/02/01 04:22:11;;;;;;;;;4.00;4.00;;;;;6.16;61.49;102369.25;6311430;22;45394;-82
2022/02/01 04:24:42;;;;;;;;;6.75;5.00;;;;;6.30;61.59;102396.81;6312661;22;45379;-83
2022/02/01 04:27:23;;;;;;;;;6.25;4.75;;;;;6.22;61.59;102373.81;6311775;22;45524;-84
2022/02/01 04:29:55;;;;;;;;;9.75;5.75;;;;;6.12;61.62;102357.78;6310836;22;45219;-83
2022/02/01 04:32:21;;;;;;;;;2.75;1.50;;;;;6.29;61.96;102381.97;6310803;22;45329;-83
2022/02/01 04:34:51;;;;;;;;;7.50;6.00;;;;;6.33;61.83;102388.22;6282469;22;45432;-83
2022/02/01 04:37:17;;;;;;;;;5.25;3.00;;;;;6.18;61.95;102364.97;6281552;22;45455;-83
2022/02/01 04:39:42;;;;;;;;;8.25;5.50;;;;;6.36;62.52;102390.94;6310649;22;46195;-83
2022/02/01 04:42:10;;;;;;;;;11.00;4.25;;;;;6.45;62.10;102393.06;6308654;22;45419;-83
2022/02/01 04:44:36;;;;;;;;;4.25;4.25;;;;;6.35;62.38;102386.56;6282836;22;45381;-83
2022/02/01 04:47:01;;;;;;;;;10.25;6.50;;;;;6.26;62.55;102365.28;6310533;22;45322;-83
2022/02/01 04:49:27;;;;;;;;;3.00;3.00;;;;;6.33;62.55;102375.13;6282409;22;47120;-83
2022/02/01 04:51:52;;;;;;;;;8.25;6.50;;;;;6.49;62.78;102400.19;6282468;22;45362;-83
2022/02/01 04:54:18;;;;;;;;;7.00;6.00;;;;;6.45;63.24;102377.38;6281329;22;45201;-83
2022/02/01 04:56:43;;;;;;;;;8.25;6.50;;;;;6.29;63.46;102345.38;6310606;22;45102;-83
2022/02/01 04:59:09;;;;;;;;;3.50;3.25;;;;;6.43;63.28;102356.38;6283078;22;47442;-83
2022/02/01 05:01:37;;;;;;;;;5.50;3.25;;;;;6.31;63.63;102335.88;6310795;22;45142;-83
2022/02/01 05:04:06;;;;;;;;;7.50;3.75;;;;;6.38;63.77;102345.72;6282768;22;45436;-84
2022/02/01 05:06:34;;;;;;;;;5.25;3.50;;;;;6.33;63.87;102346.38;6310600;22;45314;-83
2022/02/01 05:09:02;;;;;;;;;5.00;4.00;;;;;6.40;63.74;102349.28;6310059;22;45322;-84
2022/02/01 05:11:28;;;;;;;;;6.25;4.25;;;;;6.26;63.78;102331.28;6310988;22;45172;-83
2022/02/01 05:14:05;;;;;;;;;6.00;3.75;;;;;6.50;64.44;102386.28;6311263;22;45359;-83
2022/02/01 05:16:46;;;;;;;;;6.00;4.75;;;;;6.40;64.57;102371.94;6308423;22;45700;-84
2022/02/01 05:19:24;;;;;;;;;2.25;2.25;;;;;6.37;64.14;102366.59;6282339;22;46813;-83
2022/02/01 05:21:50;;;;;;;;;8.50;3.00;;;;;6.34;64.53;102361.25;6310055;22;45354;-84
2022/02/01 05:24:16;;;;;;;;;3.00;3.00;;;;;6.53;64.65;102387.28;6282670;22;45423;-84
2022/02/01 05:26:47;;;;;;;;;6.00;3.00;;;;;6.53;65.09;102379.44;6282738;22;45384;-84
2022/02/01 05:29:17;;;;;;;;;6.50;4.75;;;;;6.52;64.60;102377.69;6311225;22;46189;-84
2022/02/01 05:31:51;;;;;;;;;8.50;6.00;;;;;6.49;65.22;102374.91;6310979;22;45295;-84
2022/02/01 05:34:17;;;;;;;;;2.50;2.50;;;;;6.32;65.12;102336.75;6311072;22;45373;-83
2022/02/01 05:36:42;;;;;;;;;3.50;3.50;;;;;6.56;65.29;102382.19;6282885;22;45474;-83
2022/02/01 05:39:15;;;;;;;;;11.75;5.50;;;;;6.56;65.38;102373.44;6311046;22;46136;-83
2022/02/01 05:41:49;;;;;;;;;5.00;5.00;;;;;6.59;65.42;102361.34;6310408;22;45236;-83
2022/02/01 05:44:17;;;;;;;;;7.00;3.50;;;;;6.46;65.84;102337.28;6282547;22;45405;-83
2022/02/01 05:46:42;;;;;;;;;5.50;3.75;;;;;6.49;66.08;102325.19;6283007;22;45807;-82
2022/02/01 05:49:08;;;;;;;;;7.00;6.00;;;;;6.37;66.41;102301.22;6311036;22;46017;-83
2022/02/01 05:51:34;;;;;;;;;7.25;3.00;;;;;6.53;66.45;102324.50;6311242;22;45261;-83
2022/02/01 05:54:00;;;;;;;;;7.50;7.00;;;;;6.52;66.41;102316.59;6311139;22;45147;-83
2022/02/01 05:56:30;;;;;;;;;3.50;3.00;;;;;6.46;66.83;102287.56;6282867;22;45439;-83
2022/02/01 05:58:55;;;;;;;;;6.00;6.00;;;;;6.50;66.79;102289.50;6282028;22;45649;-84
2022/02/01 06:01:21;;;;;;;;;4.25;3.50;;;;;6.62;66.81;102300.41;6310139;22;45310;-84
2022/02/01 06:03:47;;;;;;;;;4.50;3.00;;;;;6.60;67.81;102291.59;6282024;22;45628;-84
2022/02/01 06:06:14;;;;;;;;;3.50;3.00;;;;;6.46;67.27;102280.63;6282437;22;45351;-84
2022/02/01 06:08:40;;;;;;;;;4.25;4.25;;;;;6.55;67.76;102298.41;6281798;22;47506;-84
2022/02/01 06:11:05;;;;;;;;;2.50;2.50;;;;;6.58;67.64;102296.78;6282270;22;45165;-84
2022/02/01 06:13:36;;;;;;;;;4.25;2.75;;;;;6.74;67.67;102313.06;6282203;22;45209;-84
2022/02/01 06:16:05;;;;;;;;;6.50;2.75;;;;;6.50;67.56;102265.94;6281858;22;45278;-84
2022/02/01 06:18:30;;;;;;;;;6.50;3.50;;;;;6.61;67.49;102288.16;6281622;22;47267;-84
2022/02/01 06:20:56;;;;;;;;;5.75;4.25;;;;;6.69;68.00;102284.09;6309925;22;45206;-84
2022/02/01 06:23:22;;;;;;;;;3.00;3.00;;;;;6.63;67.43;102266.47;6310132;22;45242;-84
2022/02/01 06:25:49;;;;;;;;;6.25;3.75;;;;;6.77;67.65;102292.25;6310390;22;45169;-84
2022/02/01 06:28:23;;;;;;;;;5.50;4.25;;;;;6.77;67.37;102293.13;6279368;22;47705;-84
2022/02/01 06:31:01;;;;;;;;;5.25;3.50;;;;;6.66;67.87;102265.69;6281630;22;45710;-84
2022/02/01 06:33:26;;;;;;;;;4.50;3.50;;;;;6.75;67.57;102286.06;6284011;22;45385;-84
2022/02/01 06:35:53;;;;;;;;;6.00;4.75;;;;;6.84;67.70;102292.53;6309973;22;45300;-84
2022/02/01 06:38:21;;;;;;;;;3.75;3.00;;;;;6.85;67.84;102288.19;6282071;22;47146;-84
2022/02/01 06:40:49;;;;;;;;;5.00;3.50;;;;;6.86;68.42;102292.56;6281272;22;45183;-85
2022/02/01 06:43:15;;;;;;;;;5.00;4.50;;;;;6.72;68.08;102276.38;6281668;22;45302;-84
2022/02/01 06:45:41;;;;;;;;;3.00;2.50;;;;;6.75;68.55;102284.31;6282823;22;45398;-84
2022/02/01 06:48:07;;;;;;;;;8.50;7.50;;;;;6.97;68.55;102316.50;6310522;22;45342;-83
2022/02/01 06:50:34;;;;;;;;;3.25;3.25;;;;;6.78;68.50;102276.56;6310430;22;45260;-83
2022/02/01 06:53:02;;;;;;;;;4.50;3.00;;;;;6.94;68.14;102312.06;6281956;22;45184;-84
2022/02/01 06:55:55;;;;;;;;;3.75;3.25;;;;;6.84;68.55;102286.38;6281544;22;45267;-85
2022/02/01 06:58:21;;;;;;;;;5.50;3.75;;;;;6.98;68.54;102293.03;6280950;22;48310;-84
2022/02/01 07:00:46;;;;;;;;;3.75;3.00;;;;;6.87;68.71;102268.19;6285970;22;45259;-84
2022/02/01 07:03:14;;;;;;;;;3.50;3.25;;;;;7.09;68.12;102296.03;6309679;22;45228;-84
2022/02/01 07:05:45;;;;;;;;;5.50;2.50;;;;;7.06;68.60;102296.81;6310063;22;45295;-86
2022/02/01 07:25:33;;;;;;;;;7.50;4.00;;;;;7.28;68.87;102310.66;6124586;23;45532;-84
2022/02/01 07:35:52;;;;;;;;;;;;;;;;;;;;;
2022/02/01 07:38:22;;;;;;;;;5.00;4.00;;;;;7.32;70.08;102307.28;6228737;22;72084;-86
2022/02/01 07:45:09;;;;;;;;;;;;;;;;;;;;;
2022/02/01 07:55:29;;;;;;;;;;;;;;;;;;;;;
2022/02/01 08:02:51;;;;;;;;;;;;;;;;;;;;;
2022/02/01 08:09:35;;;;;;;;;;;;;;;;;;;;;
2022/02/01 08:20:01;;;;;;;;;6.75;3.00;;;;;7.36;71.23;102193.91;6011040;23;45359;-88
2022/02/01 08:22:30;;;;;;;;;6.00;6.00;;;;;7.63;71.07;102238.47;6107888;23;45173;-89
2022/02/01 08:26:04;;;;;;;;;;;;;;;;;;;;;
2022/02/01 08:28:23;;;;;;;;;7.00;6.00;;;;;7.65;71.13;102228.06;6306353;22;45900;-87
2022/02/01 08:30:55;;;;;;;;;4.50;3.25;;;;;7.73;71.48;102237.94;6282072;22;45424;-83
2022/02/01 08:33:24;;;;;;;;;3.25;3.00;;;;;7.78;71.58;102229.31;6283231;22;45177;-86
2022/02/01 08:36:25;;;;;;;;;3.25;3.25;;;;;7.78;71.20;102224.06;6310126;22;45451;-89
2022/02/01 08:38:52;;;;;;;;;4.00;4.00;;;;;7.82;71.59;102215.47;6304184;22;46399;-89
2022/02/01 08:41:18;;;;;;;;;2.75;2.75;;;;;7.80;71.40;102198.78;6283163;22;45795;-91
2022/02/01 08:43:56;;;;;;;;;;;;;;;;;;;;;
2022/02/01 08:46:22;;;;;;;;;4.00;4.00;;;;;7.91;71.91;102215.75;6311228;22;72530;-87
2022/02/01 08:49:14;;;;;;;;;7.75;7.25;;;;;7.80;71.81;102183.06;6285501;22;47192;-92
2022/02/01 08:51:43;;;;;;;;;2.00;1.75;;;;;7.83;72.03;102177.91;6279814;22;45264;-87
2022/02/01 08:54:22;;;;;;;;;1.75;1.75;;;;;7.95;72.09;102187.06;6283405;22;45154;-89
2022/02/01 08:59:55;;;;;;;;;4.75;2.25;;;;;8.01;71.84;102191.59;6313411;22;45235;-90
2022/02/01 09:02:23;;;;;;;;;3.00;2.25;;;;;7.90;71.93;102154.56;6283299;22;45706;-87
2022/02/01 09:04:49;;;;;;;;;3.25;3.25;;;;;8.02;71.76;102167.16;6282035;22;45214;-83
2022/02/01 09:07:15;;;;;;;;;2.75;2.75;;;;;8.06;72.16;102162.88;6307951;22;45800;-87
2022/02/01 09:09:59;;;;;;;;;3.50;3.50;;;;;8.00;72.07;102145.25;6284477;22;46972;-87
2022/02/01 09:12:31;;;;;;;;;4.75;4.75;;;;;8.18;71.88;102172.00;6281969;22;45533;-87
2022/02/01 09:15:34;;;;;;;;;;;;;;;;;;;;;
2022/02/01 09:18:01;;;;;;;;;4.50;3.00;;;;;8.22;71.98;102145.84;6302656;22;72788;-84
2022/02/01 09:20:52;;;;;;;;;;;;;;;;;;;;;
2022/02/01 09:23:18;;;;;;;;;3.00;3.00;;;;;8.25;72.11;102152.06;6307584;22;71621;-87
2022/02/01 09:25:46;;;;;;;;;4.50;3.00;;;;;8.15;71.71;102136.91;6282448;22;45273;-87
2022/02/01 09:28:12;;;;;;;;;2.50;2.50;;;;;8.39;72.03;102174.41;6282285;22;45431;-86
2022/02/01 09:30:39;;;;;;;;;2.00;2.00;;;;;8.26;72.17;102127.63;6287413;22;47161;-87
2022/02/01 09:33:04;;;;;;;;;3.25;3.25;;;;;8.29;71.53;102121.59;6284409;22;45455;-86
2022/02/01 09:35:30;;;;;;;;;3.00;2.25;;;;;8.27;72.01;102116.28;6315187;22;45146;-85
2022/02/01 13:58:35;;;;;;;;;4.00;2.75;;;;;10.28;74.37;101864.94;6310376;22;46717;-87
2022/02/01 14:01:08;;;;;;;;;2.00;2.00;;;;;10.40;74.53;101896.72;6341429;22;45429;-84
2022/02/01 14:03:41;;;;;;;;;2.50;2.00;;;;;10.37;74.35;101894.00;6311641;22;47216;-83
2022/02/01 14:08:50;;;;;;;;;4.00;2.25;;;;;10.51;74.25;101910.94;6340260;22;45214;-82
2022/02/01 14:33:04;;;;;;;;;5.00;4.00;;;;;10.62;74.34;101897.91;6340463;22;45157;-83
2022/02/01 14:35:12;;;;;;;;;3.00;3.00;;;;;10.64;74.23;101911.09;6339339;22;45355;-84
2022/02/01 14:37:44;;;;;;;;;3.00;3.00;;;;;10.71;74.03;101920.88;6311957;22;45411;-83
2022/02/01 14:43:45;;;;;;;;;5.75;3.00;;;;;10.70;74.17;101898.91;6340699;22;45325;-84
2022/02/01 14:45:43;;;;;;;;;3.00;3.00;;;;;10.78;74.17;101917.47;6322750;22;45466;-86
2022/02/01 14:48:09;;;;;;;;;5.50;4.25;;;;;10.77;74.46;101916.59;6341409;22;45218;-85
2022/02/01 14:50:34;;;;;;;;;4.00;4.00;;;;;10.78;74.23;101920.97;6312449;22;45263;-84
2022/02/01 14:53:00;;;;;;;;;3.50;3.50;;;;;10.70;74.66;101903.31;6312083;22;45390;-84
2022/02/01 14:55:34;;;;;;;;;4.25;3.00;;;;;10.68;74.51;101892.72;6340088;22;46081;-84
2022/02/01 15:03:49;;;;;;;;;4.75;3.50;;;;;10.77;74.75;101908.69;6338797;22;45344;-84
2022/02/01 15:14:24;;;;;;;;;4.00;2.50;;;;;11.01;74.78;101917.75;6341279;22;45442;-88
2022/02/01 15:16:50;;;;;;;;;4.25;3.75;;;;;10.92;74.82;101907.13;6308781;22;47122;-88
2022/02/01 15:19:41;;;;;;;;;1.50;0.75;;;;;11.02;74.63;101906.38;6312790;22;44628;-89
2022/02/01 15:22:25;;;;;;;;;;;;;;;;;;;;;
2022/02/01 15:24:51;;;;;;;;;4.00;3.00;;;;;10.82;74.80;101896.47;6337319;22;71706;-88
2022/02/01 15:27:18;;;;;;;;;3.00;3.00;;;;;10.89;74.87;101893.91;6309899;22;46942;-89
2022/02/01 15:29:44;;;;;;;;;3.00;2.00;;;;;10.80;75.23;101882.38;6314361;22;45183;-89
2022/02/01 15:32:10;;;;;;;;;2.25;2.25;;;;;10.96;75.03;101919.44;6312021;22;45320;-86
2022/02/01 15:34:36;;;;;;;;;3.00;3.00;;;;;10.94;75.00;101911.53;6312012;22;45555;-87
2022/02/01 15:37:03;;;;;;;;;2.00;2.00;;;;;10.87;74.97;101900.91;6340429;22;45466;-88
2022/02/01 15:59:00;;;;;;;;;4.33;2.67;;;;;10.89;74.94;101904.44;6339044;22;45368;-88
2022/02/01 16:04:50;;;;;;;;;;;;;;;;;;;;;
2022/02/01 16:07:17;;;;;;;;;5.00;3.00;;;;;10.86;74.96;101904.41;6339814;22;71979;-88
2022/02/01 16:12:18;;;;;;;;;6.75;5.25;;;;;10.91;74.71;101908.00;6340315;22;45619;-85
2022/02/01 16:14:43;;;;;;;;;4.00;4.00;;;;;10.90;74.92;101898.28;6341690;22;45372;-85
2022/02/01 16:17:11;;;;;;;;;2.00;2.00;;;;;10.93;74.84;101904.50;6338604;22;45469;-86
2022/02/01 16:19:37;;;;;;;;;4.00;3.00;;;;;10.84;74.75;101885.06;6344181;22;45243;-88
2022/02/01 16:22:18;;;;;;;;;4.75;3.00;;;;;10.85;74.83;101887.69;6348978;22;45292;-88
2022/02/01 16:28:15;;;;;;;;;6.50;4.50;;;;;10.91;74.71;101897.47;6343469;22;44792;-90
2022/02/01 16:30:43;;;;;;;;;8.00;6.75;;;;;10.87;74.64;101907.03;6358793;22;45014;-90
2022/02/01 16:33:09;;;;;;;;;6.25;6.00;;;;;10.90;74.76;101914.97;6329332;22;45401;-86
2022/02/01 16:35:37;;;;;;;;;5.00;5.00;;;;;10.98;74.50;101915.97;6353738;22;45348;-89
2022/02/01 16:38:03;;;;;;;;;4.50;3.00;;;;;10.86;74.55;101886.84;6324497;22;45715;-87
2022/02/01 16:40:47;;;;;;;;;5.00;5.00;;;;;10.95;74.54;101907.16;6321313;22;47145;-86
2022/02/01 16:43:15;;;;;;;;;4.50;4.00;;;;;10.89;74.54;101899.19;6340346;22;45315;-88
2022/02/01 16:45:46;;;;;;;;;8.00;6.50;;;;;10.91;74.47;101911.50;6340235;22;45537;-89
2022/02/01 16:48:13;;;;;;;;;5.75;5.75;;;;;10.96;74.66;101916.81;6340674;22;45926;-89
2022/02/01 16:50:40;;;;;;;;;7.00;7.00;;;;;10.99;74.48;101920.41;6339933;22;45347;-87
2022/02/01 16:53:23;;;;;;;;;7.00;6.00;;;;;10.93;74.45;101900.97;6314314;22;45228;-90
2022/02/01 16:59:07;;;;;;;;;5.00;4.25;;;;;10.89;74.44;101900.06;6341723;22;45459;-87
2022/02/01 17:01:33;;;;;;;;;3.25;2.00;;;;;10.96;74.42;101928.25;6311806;22;46865;-87
2022/02/01 17:05:02;;;;;;;;;;;;;;;;;;;;;
2022/02/01 17:07:17;;;;;;;;;7.25;5.00;;;;;10.89;74.54;101910.59;6328862;22;45614;-89
2022/02/01 17:09:57;;;;;;;;;5.00;4.75;;;;;10.82;74.44;101892.91;6339137;22;45545;-87
2022/02/01 17:13:10;;;;;;;;;4.50;4.50;;;;;10.83;74.42;101892.06;6316111;22;46852;-89
2022/02/01 17:18:48;;;;;;;;;;;;;;;;;;;;;
2022/02/01 17:21:37;;;;;;;;;10.00;7.00;;;;;10.82;74.19;101891.19;6344894;22;71959;-89
2022/02/01 17:24:10;;;;;;;;;6.00;6.00;;;;;10.93;73.95;101890.44;6347810;22;46090;-90
2022/02/01 17:27:12;;;;;;;;;;;;;;;;;;;;;
2022/02/01 17:29:41;;;;;;;;;7.50;6.00;;;;;10.89;74.07;101894.78;6361888;22;67943;-87
2022/02/01 17:32:11;;;;;;;;;10.50;9.00;;;;;10.93;74.10;101891.34;6362584;22;44861;-91
2022/02/01 17:37:52;;;;;;;;;9.50;6.25;;;;;10.98;74.13;101926.50;6332641;22;44931;-95
2022/02/01 17:40:20;;;;;;;;;8.25;8.25;;;;;11.00;74.23;101930.06;6325859;22;45207;-85
2022/02/01 17:42:53;;;;;;;;;6.25;6.00;;;;;10.92;74.04;101918.53;6343988;22;45395;-88
2022/02/01 17:45:49;;;;;;;;;10.25;10.00;;;;;10.98;74.11;101930.91;6342358;22;45668;-92
2022/02/01 17:48:22;;;;;;;;;9.75;9.00;;;;;10.95;74.20;101930.88;6295832;22;45232;-93
2022/02/01 17:53:53;;;;;;;;;12.00;9.75;;;;;11.02;74.21;101951.19;6346950;22;45364;-92
2022/02/01 17:56:21;;;;;;;;;9.25;8.00;;;;;10.97;74.16;101932.66;6314957;22;47570;-87
2022/02/01 17:58:49;;;;;;;;;9.00;9.00;;;;;10.99;74.15;101938.84;6317674;22;45221;-89
2022/02/01 18:01:44;;;;;;;;;10.75;10.00;;;;;10.91;74.02;101924.69;6344390;22;45203;-84
2022/02/01 18:15:45;;;;;;;;;;;;;;;;;;;;;
2022/02/01 18:19:25;;;;;;;;;;;;;;;;;;;;;
2022/02/01 19:49:36;;;;;;;;;;;;;;;;;;;;;
2022/02/01 20:00:04;;;;;;;;;;;;;;;;;;;;;
